createdAt,value
2019-05-03T00:04:57.365Z,40.6
2019-05-03T00:09:59.121Z,40.6
2019-05-03T00:15:02.680Z,40.5
2019-05-03T00:20:04.577Z,40.4
2019-05-03T00:25:08.377Z,40.4
2019-05-03T00:30:11.960Z,40.2
2019-05-03T00:35:13.865Z,40.2
2019-05-03T00:40:15.614Z,40.1
2019-05-03T00:45:17.358Z,40.1
2019-05-03T00:50:19.092Z,40
2019-05-03T00:55:21.967Z,39.9
2019-05-03T01:00:22.914Z,39.9
2019-05-03T01:05:24.637Z,39.8
2019-05-03T01:10:26.373Z,39.7
2019-05-03T01:15:28.092Z,39.7
2019-05-03T01:20:31.807Z,39.6
2019-05-03T01:25:35.474Z,39.6
2019-05-03T01:30:37.363Z,39.5
2019-05-03T01:35:39.077Z,39.5
2019-05-03T01:40:41.891Z,39.4
2019-05-03T01:45:44.045Z,39.3
2019-05-03T01:50:45.743Z,39.3
2019-05-03T01:55:47.444Z,39.2
2019-05-03T02:00:49.149Z,39.2
2019-05-03T02:05:52.019Z,39.1
2019-05-03T02:10:53.805Z,39.1
2019-05-03T02:15:55.502Z,39
2019-05-03T02:20:57.201Z,38.9
2019-05-03T02:25:59.192Z,38.9
2019-05-03T02:31:03.447Z,38.9
2019-05-03T02:36:05.477Z,38.8
2019-05-03T02:41:07.169Z,38.7
2019-05-03T02:46:08.857Z,38.7
2019-05-03T02:51:10.547Z,38.6
2019-05-03T02:56:17.762Z,38.6
2019-05-03T03:01:26.037Z,38.6
2019-05-03T03:06:27.953Z,38.5
2019-05-03T03:11:29.661Z,38.4
2019-05-03T03:16:31.324Z,38.4
2019-05-03T03:21:35.805Z,38.4
2019-05-03T03:26:42.230Z,38.3
2019-05-03T03:31:48.118Z,38.2
2019-05-03T03:37:00.512Z,38.2
2019-05-03T03:42:05.557Z,38.2
2019-05-03T03:47:07.248Z,38.1
2019-05-03T03:52:08.890Z,38.1
2019-05-03T03:57:10.555Z,38
2019-05-03T04:02:12.235Z,38
2019-05-03T04:07:15.706Z,37.9
2019-05-03T04:12:17.636Z,37.9
2019-05-03T04:17:19.267Z,37.9
2019-05-03T04:22:20.894Z,37.8
2019-05-03T04:27:26.203Z,37.7
2019-05-03T04:32:29.163Z,37.7
2019-05-03T04:37:30.893Z,37.7
2019-05-03T04:42:35.466Z,37.6
2019-05-03T04:47:37.319Z,37.6
2019-05-03T04:52:38.937Z,37.5
2019-05-03T04:57:45.689Z,37.5
2019-05-03T05:02:48.472Z,37.4
2019-05-03T05:07:50.082Z,37.4
2019-05-03T05:12:51.701Z,37.4
2019-05-03T05:17:56.024Z,37.3
2019-05-03T05:22:56.985Z,37.3
2019-05-03T05:27:58.595Z,37.2
2019-05-03T05:33:00.202Z,37.2
2019-05-03T05:38:00.825Z,37.2
2019-05-03T05:43:01.465Z,37.1
2019-05-03T05:48:05.129Z,37.1
2019-05-03T05:53:06.816Z,37.1
2019-05-03T05:58:08.551Z,37
2019-05-03T06:03:10.182Z,37
2019-05-03T06:08:11.801Z,36.9
2019-05-03T06:13:15.141Z,36.9
2019-05-03T06:18:16.943Z,36.9
2019-05-03T06:23:18.547Z,36.8
2019-05-03T06:28:21.077Z,36.8
2019-05-03T06:33:24.335Z,36.7
2019-05-03T06:38:26.092Z,36.7
2019-05-03T06:43:27.694Z,36.7
2019-05-03T06:48:31.946Z,36.6
2019-05-03T06:53:34.500Z,36.6
2019-05-03T06:58:36.613Z,36.6
2019-05-03T07:03:38.292Z,36.6
2019-05-03T07:08:39.893Z,36.5
2019-05-03T07:13:41.530Z,36.5
2019-05-03T07:18:45.289Z,36.4
2019-05-03T07:23:47.208Z,36.4
2019-05-03T07:28:50.101Z,36.4
2019-05-03T07:33:51.897Z,36.3
2019-05-03T07:38:55.333Z,36.3
2019-05-03T07:43:57.270Z,36.2
2019-05-03T07:48:58.895Z,36.2
2019-05-03T07:54:00.511Z,36.2
2019-05-03T07:59:03.907Z,36.2
2019-05-03T08:04:07.435Z,36.1
2019-05-03T08:09:09.015Z,36.1
2019-05-03T08:14:10.844Z,36.1
2019-05-03T08:19:12.424Z,36.1
2019-05-03T08:24:14.894Z,36
2019-05-03T08:29:19.359Z,36
2019-05-03T08:34:21.143Z,35.9
2019-05-03T08:39:22.278Z,35.9
2019-05-03T08:44:25.014Z,35.9
2019-05-03T08:49:25.819Z,35.9
2019-05-03T08:54:26.956Z,35.8
2019-05-03T08:59:32.785Z,35.7
2019-05-03T09:04:38.026Z,35.7
2019-05-03T09:09:40.249Z,35.7
2019-05-03T09:14:45.646Z,35.7
2019-05-03T09:19:47.989Z,35.7
2019-05-03T09:24:49.594Z,35.6
2019-05-03T09:29:51.161Z,35.6
2019-05-03T09:34:54.522Z,35.6
2019-05-03T09:39:56.734Z,35.6
2019-05-03T09:44:57.379Z,35.5
2019-05-03T09:50:01.837Z,35.5
2019-05-03T09:55:05.220Z,35.4
2019-05-03T10:00:07.000Z,35.4
2019-05-03T10:05:08.572Z,35.4
2019-05-03T10:10:10.159Z,35.4
2019-05-03T10:15:11.732Z,35.4
2019-05-03T10:20:14.915Z,35.3
2019-05-03T10:25:16.842Z,35.3
2019-05-03T10:30:18.420Z,35.2
2019-05-03T10:35:19.991Z,35.2
2019-05-03T10:40:21.602Z,35.2
2019-05-03T10:45:25.755Z,35.2
2019-05-03T10:50:29.398Z,35.1
2019-05-03T10:55:30.955Z,35.1
2019-05-03T11:00:45.900Z,35.1
2019-05-03T11:05:51.041Z,35.1
2019-05-03T11:10:52.155Z,35.1
2019-05-03T11:15:54.882Z,35
2019-05-03T11:20:56.824Z,35
2019-05-03T11:25:58.405Z,34.9
2019-05-03T11:31:02.356Z,34.9
2019-05-03T11:36:04.466Z,34.9
2019-05-03T11:41:05.202Z,34.9
2019-05-03T11:46:06.767Z,34.9
2019-05-03T11:51:08.322Z,34.8
2019-05-03T11:56:09.864Z,34.8
2019-05-03T12:01:16.152Z,34.7
2019-05-03T12:06:20.424Z,34.7
2019-05-03T12:11:21.961Z,34.7
2019-05-03T12:16:54.649Z,34.7
2019-05-03T12:22:08.859Z,34.7
2019-05-03T12:27:10.849Z,34.7
2019-05-03T12:32:14.314Z,34.6
2019-05-03T12:37:16.044Z,34.6
2019-05-03T12:42:18.845Z,34.6
2019-05-03T12:47:22.280Z,34.6
2019-05-03T12:52:26.373Z,34.5
2019-05-03T12:57:28.502Z,34.5
2019-05-03T13:02:30.058Z,34.5
2019-05-03T13:07:31.599Z,34.4
2019-05-03T13:12:34.697Z,34.4
2019-05-03T13:17:36.387Z,34.4
2019-05-03T13:22:37.929Z,34.4
2019-05-03T13:27:39.462Z,34.4
2019-05-03T13:32:40.543Z,34.3
2019-05-03T13:37:42.064Z,34.3
2019-05-03T13:42:55.919Z,34.3
2019-05-03T13:47:58.788Z,34.2
2019-05-03T13:53:00.316Z,34.2
2019-05-03T13:58:01.835Z,34.2
2019-05-03T14:03:04.526Z,34.2
2019-05-03T14:08:06.212Z,34.2
2019-05-03T14:13:07.728Z,34.1
2019-05-03T14:18:09.238Z,34.1
2019-05-03T14:23:10.734Z,34.1
2019-05-03T14:28:12.230Z,34.1
2019-05-03T14:33:13.958Z,34.1
2019-05-03T14:38:15.473Z,34
2019-05-03T14:43:17.005Z,34
2019-05-03T14:48:18.538Z,34
2019-05-03T14:53:20.080Z,33.9
2019-05-03T14:58:21.616Z,33.9
2019-05-03T15:03:24.580Z,33.9
2019-05-03T15:08:26.295Z,33.9
2019-05-03T15:13:27.835Z,33.9
2019-05-03T15:18:29.416Z,36.8
2019-05-03T15:23:31.081Z,38.7
2019-05-03T15:28:35.372Z,39.8
2019-05-03T15:33:37.476Z,40.8
2019-05-03T15:38:39.229Z,41.6
2019-05-03T15:43:41.014Z,42.4
2019-05-03T15:48:41.164Z,43.1
2019-05-03T15:53:41.322Z,43.7
2019-05-03T15:58:44.132Z,44.3
2019-05-03T16:03:45.137Z,44.8
2019-05-03T16:08:45.383Z,45.2
2019-05-03T16:13:45.626Z,45.6
2019-05-03T16:18:46.115Z,45.8
2019-05-03T16:23:46.709Z,45.9
2019-05-03T16:28:47.076Z,46
2019-05-03T16:33:47.307Z,46.2
2019-05-03T16:38:48.268Z,46.2
2019-05-03T16:43:48.518Z,46.6
2019-05-03T16:48:49.996Z,46.9
2019-05-03T16:53:50.219Z,47.1
2019-05-03T16:58:50.452Z,47.1
2019-05-03T17:03:50.688Z,47.2
2019-05-03T17:08:50.907Z,47.2
2019-05-03T17:13:51.149Z,47.2
2019-05-03T17:18:51.379Z,47.3
2019-05-03T17:23:51.641Z,47.4
2019-05-03T17:28:55.212Z,47.3
2019-05-03T17:33:56.772Z,47.2
2019-05-03T17:38:57.221Z,47.4
2019-05-03T17:43:57.455Z,47.4
2019-05-03T17:48:57.703Z,47.4
2019-05-03T17:53:57.937Z,47.4
2019-05-03T17:58:58.196Z,47.3
2019-05-03T18:04:06.479Z,47.3
2019-05-03T18:09:09.877Z,47.4
2019-05-03T18:14:10.122Z,47.4
2019-05-03T18:19:10.361Z,47.4
2019-05-03T18:24:10.608Z,47.4
2019-05-03T18:29:10.824Z,47.4
2019-05-03T18:34:18.908Z,47.3
2019-05-03T18:39:20.726Z,47.3
2019-05-03T18:44:20.960Z,47.3
2019-05-03T18:49:21.204Z,47.3
2019-05-03T18:54:21.451Z,47.6
2019-05-03T18:59:21.697Z,47.9
2019-05-03T19:04:31.259Z,48.1
2019-05-03T19:09:35.643Z,48.1
2019-05-03T19:14:35.972Z,48.1
2019-05-03T19:19:37.496Z,48.2
2019-05-03T19:24:39.027Z,48.4
2019-05-03T19:29:40.550Z,48.4
2019-05-03T19:34:48.231Z,48.4
2019-05-03T19:39:51.176Z,48.4
2019-05-03T19:44:51.813Z,48.4
2019-05-03T19:49:54.617Z,48.3
2019-05-03T19:54:55.554Z,48.3
2019-05-03T19:59:56.959Z,48.3
2019-05-03T20:05:00.489Z,48.2
2019-05-03T20:10:00.970Z,48.1
2019-05-03T20:15:01.289Z,48.1
2019-05-03T20:20:01.585Z,48.1
2019-05-03T20:25:02.094Z,48
2019-05-03T20:30:05.663Z,48
2019-05-03T20:35:14.687Z,47.9
2019-05-03T20:40:18.430Z,47.9
2019-05-03T20:45:18.688Z,47.9
2019-05-03T20:50:18.946Z,47.8
2019-05-03T20:55:19.196Z,47.7
2019-05-03T21:00:19.455Z,47.7
2019-05-03T21:05:27.632Z,47.7
2019-05-03T21:10:30.580Z,47.6
2019-05-03T21:15:30.859Z,47.6
2019-05-03T21:20:31.088Z,47.6
2019-05-03T21:25:31.322Z,47.5
2019-05-03T21:30:32.898Z,47.4
2019-05-03T21:40:38.589Z,47.4
2019-05-03T21:45:38.837Z,47.3
2019-05-03T21:50:39.077Z,47.2
2019-05-03T21:55:39.298Z,47.2
2019-05-03T22:00:39.533Z,47.1
2019-05-03T22:05:51.678Z,47.1
2019-05-03T22:10:56.296Z,47.1
2019-05-03T22:15:56.542Z,47
2019-05-03T22:20:56.769Z,46.9
2019-05-03T22:25:57.044Z,46.8
2019-05-03T22:30:57.327Z,46.8
2019-05-03T22:36:08.170Z,46.7
2019-05-03T22:41:08.814Z,46.7
2019-05-03T22:46:09.044Z,46.6
2019-05-03T22:51:09.307Z,46.6
2019-05-03T22:56:10.764Z,46.5
2019-05-03T23:01:10.989Z,46.5
2019-05-03T23:06:20.181Z,46.4
2019-05-03T23:11:24.468Z,46.4
2019-05-03T23:16:24.917Z,46.3
2019-05-03T23:21:25.153Z,46.2
2019-05-03T23:26:25.565Z,46.2
2019-05-03T23:31:25.835Z,46.1
2019-05-03T23:36:33.000Z,46.1
2019-05-03T23:41:35.045Z,46
2019-05-03T23:46:35.505Z,46
2019-05-03T23:51:35.741Z,45.9
2019-05-03T23:56:35.985Z,45.9
